createdAt,value
2023-03-28T00:01:01.554Z,55.28
2023-03-28T00:04:03.493Z,54.96
2023-03-28T00:07:05.708Z,54.95
2023-03-28T00:10:08.054Z,55.21
2023-03-28T00:13:10.560Z,55.29
2023-03-28T00:16:13.329Z,55.23
2023-03-28T00:19:18.185Z,55.04
2023-03-28T00:22:21.179Z,55.30
2023-03-28T00:25:23.073Z,55.29
2023-03-28T00:28:24.603Z,55.32
2023-03-28T00:31:26.540Z,55.05
2023-03-28T00:34:28.154Z,55.24
2023-03-28T00:37:30.016Z,55.42
2023-03-28T00:40:38.694Z,55.24
2023-03-28T00:43:52.138Z,55.19
2023-03-28T00:46:53.781Z,55.46
2023-03-28T00:50:00.660Z,55.36
2023-03-28T00:53:10.446Z,55.35
2023-03-28T00:56:17.642Z,55.28
2023-03-28T00:59:23.632Z,55.47
2023-03-28T01:02:25.714Z,55.30
2023-03-28T01:05:31.450Z,55.39
2023-03-28T01:08:37.976Z,55.34
2023-03-28T01:11:42.058Z,55.58
2023-03-28T01:14:45.387Z,55.51
2023-03-28T01:17:48.264Z,55.44
2023-03-28T01:20:52.739Z,55.26
2023-03-28T01:24:12.865Z,55.51
2023-03-28T01:27:41.841Z,55.32
2023-03-28T01:31:00.341Z,55.42
2023-03-28T01:34:30.168Z,55.33
2023-03-28T01:38:05.711Z,55.21
2023-03-28T01:41:35.562Z,55.26
2023-03-28T01:44:40.400Z,55.33
2023-03-28T01:47:48.616Z,55.35
2023-03-28T01:51:03.865Z,55.47
2023-03-28T01:54:18.096Z,55.28
2023-03-28T01:57:24.005Z,55.58
2023-03-28T02:00:34.330Z,55.51
2023-03-28T02:03:39.509Z,55.57
2023-03-28T02:06:46.971Z,55.56
2023-03-28T02:09:51.430Z,55.58
2023-03-28T02:13:00.771Z,55.34
2023-03-28T02:16:05.014Z,55.52
2023-03-28T02:19:08.549Z,55.29
2023-03-28T02:22:21.284Z,55.77
2023-03-28T02:25:22.984Z,55.57
2023-03-28T02:28:25.855Z,55.67
2023-03-28T02:31:27.589Z,55.68
2023-03-28T02:34:29.389Z,56.09
2023-03-28T02:37:50.814Z,55.92
2023-03-28T02:41:07.205Z,55.92
2023-03-28T02:44:39.578Z,55.94
2023-03-28T02:48:02.955Z,55.69
2023-03-28T02:51:30.249Z,55.92
2023-03-28T02:54:49.214Z,55.77
2023-03-28T02:57:56.062Z,55.95
2023-03-28T03:00:57.717Z,55.95
2023-03-28T03:04:00.780Z,55.83
2023-03-28T03:07:02.920Z,55.94
2023-03-28T03:10:06.966Z,55.93
2023-03-28T03:13:08.563Z,55.79
2023-03-28T03:16:10.721Z,56.00
2023-03-28T03:19:12.351Z,55.90
2023-03-28T03:22:21.053Z,55.87
2023-03-28T03:25:23.103Z,55.86
2023-03-28T03:28:24.712Z,55.91
2023-03-28T03:31:26.353Z,55.88
2023-03-28T03:34:27.995Z,55.96
2023-03-28T03:37:29.688Z,55.83
2023-03-28T03:40:31.253Z,55.88
2023-03-28T03:43:34.287Z,56.04
2023-03-28T03:46:35.967Z,56.12
2023-03-28T03:49:38.112Z,55.97
2023-03-28T03:52:39.811Z,56.13
2023-03-28T03:55:41.315Z,55.94
2023-03-28T03:58:43.033Z,55.94
2023-03-28T04:01:44.575Z,56.02
2023-03-28T04:04:47.852Z,55.99
2023-03-28T04:07:49.474Z,56.05
2023-03-28T04:10:50.999Z,55.95
2023-03-28T04:13:52.575Z,56.21
2023-03-28T04:16:54.121Z,56.26
2023-03-28T04:19:56.403Z,56.03
2023-03-28T04:23:00.325Z,56.17
2023-03-28T04:26:02.571Z,56.19
2023-03-28T04:29:05.273Z,56.19
2023-03-28T04:32:06.901Z,55.99
2023-03-28T04:35:08.854Z,56.09
2023-03-28T04:38:10.506Z,56.20
2023-03-28T04:41:22.258Z,56.27
2023-03-28T04:44:23.945Z,56.31
2023-03-28T04:47:25.561Z,56.33
2023-03-28T04:50:27.371Z,56.23
2023-03-28T04:53:28.995Z,56.21
2023-03-28T04:56:30.542Z,56.18
2023-03-28T04:59:32.107Z,56.37
2023-03-28T05:02:33.748Z,56.18
2023-03-28T05:05:35.579Z,56.15
2023-03-28T05:08:37.137Z,56.59
2023-03-28T05:11:39.934Z,56.17
2023-03-28T05:14:42.018Z,56.30
2023-03-28T05:17:43.600Z,56.16
2023-03-28T05:20:45.272Z,57.28
2023-03-28T05:23:52.011Z,57.84
2023-03-28T05:26:54.252Z,57.43
2023-03-28T05:29:56.274Z,56.70
2023-03-28T05:32:58.747Z,56.36
2023-03-28T05:36:00.738Z,56.24
2023-03-28T05:39:02.304Z,56.56
2023-03-28T05:42:04.222Z,56.86
2023-03-28T05:45:07.148Z,56.33
2023-03-28T05:48:08.803Z,56.39
2023-03-28T05:51:10.393Z,56.67
2023-03-28T05:54:12.081Z,56.36
2023-03-28T05:57:13.634Z,56.21
2023-03-28T06:00:15.915Z,56.54
2023-03-28T06:03:17.760Z,56.23
2023-03-28T06:06:20.463Z,56.50
2023-03-28T06:09:22.409Z,56.38
2023-03-28T06:12:23.963Z,56.45
2023-03-28T06:15:25.830Z,56.28
2023-03-28T06:18:27.591Z,56.69
2023-03-28T06:21:29.105Z,56.57
2023-03-28T06:24:30.847Z,56.64
2023-03-28T06:27:33.282Z,56.61
2023-03-28T06:30:34.899Z,56.27
2023-03-28T06:33:37.418Z,56.17
2023-03-28T06:36:39.045Z,56.22
2023-03-28T06:39:41.598Z,56.49
2023-03-28T06:42:43.405Z,56.48
2023-03-28T06:45:44.982Z,56.52
2023-03-28T06:48:47.272Z,57.29
2023-03-28T06:51:48.836Z,56.69
2023-03-28T06:54:50.384Z,56.34
2023-03-28T06:57:52.023Z,56.88
2023-03-28T07:00:54.308Z,56.61
2023-03-28T07:03:59.646Z,56.69
2023-03-28T07:07:01.474Z,56.65
2023-03-28T07:10:03.237Z,56.84
2023-03-28T07:13:05.596Z,56.58
2023-03-28T07:16:11.557Z,56.79
2023-03-28T07:19:13.294Z,56.79
2023-03-28T07:22:14.797Z,56.46
2023-03-28T07:25:16.541Z,56.62
2023-03-28T07:28:18.093Z,56.31
2023-03-28T07:31:21.211Z,56.23
2023-03-28T07:34:22.967Z,56.39
2023-03-28T07:37:24.627Z,56.25
2023-03-28T07:40:26.180Z,56.42
2023-03-28T07:43:27.752Z,56.46
2023-03-28T07:46:29.464Z,56.26
2023-03-28T07:49:31.100Z,56.24
2023-03-28T07:52:32.662Z,56.09
2023-03-28T07:55:52.082Z,56.35
2023-03-28T07:58:57.008Z,56.41
2023-03-28T08:01:58.682Z,56.47
2023-03-28T08:05:00.462Z,56.42
2023-03-28T08:08:03.640Z,56.49
2023-03-28T08:11:05.809Z,56.39
2023-03-28T08:14:10.087Z,56.18
2023-03-28T08:17:11.685Z,56.38
2023-03-28T08:20:13.370Z,56.38
2023-03-28T08:23:15.358Z,56.29
2023-03-28T08:26:17.054Z,56.21
2023-03-28T08:29:18.643Z,56.27
2023-03-28T08:32:20.326Z,57.02
2023-03-28T08:35:21.856Z,56.98
2023-03-28T08:38:23.662Z,56.90
2023-03-28T08:41:34.323Z,56.57
2023-03-28T08:44:48.672Z,56.33
2023-03-28T08:47:53.163Z,56.40
2023-03-28T08:51:15.372Z,56.53
2023-03-28T08:54:24.340Z,56.47
2023-03-28T08:57:30.003Z,56.37
2023-03-28T09:00:34.302Z,56.44
2023-03-28T09:03:36.445Z,56.31
2023-03-28T09:06:43.747Z,56.13
2023-03-28T09:10:13.639Z,55.96
2023-03-28T09:13:30.395Z,55.87
2023-03-28T09:17:01.457Z,55.94
2023-03-28T09:20:15.135Z,55.94
2023-03-28T09:23:26.775Z,55.94
2023-03-28T09:26:35.637Z,56.00
2023-03-28T09:29:39.904Z,55.93
2023-03-28T09:32:42.574Z,56.06
2023-03-28T09:35:47.093Z,55.93
2023-03-28T09:38:59.148Z,55.81
2023-03-28T09:42:08.138Z,55.70
2023-03-28T09:45:30.293Z,55.52
2023-03-28T09:48:35.608Z,55.51
2023-03-28T09:51:37.490Z,55.50
2023-03-28T09:54:41.816Z,55.25
2023-03-28T09:58:01.710Z,55.25
2023-03-28T10:01:03.510Z,54.97
2023-03-28T10:04:14.536Z,54.87
2023-03-28T10:07:27.763Z,54.81
2023-03-28T10:10:29.754Z,54.63
2023-03-28T10:13:40.629Z,54.49
2023-03-28T10:16:43.814Z,54.37
2023-03-28T10:19:47.412Z,54.61
2023-03-28T10:22:52.013Z,54.48
2023-03-28T10:25:54.639Z,54.34
2023-03-28T10:29:02.320Z,54.22
2023-03-28T10:32:06.456Z,54.05
2023-03-28T10:35:27.839Z,53.92
2023-03-28T10:38:43.407Z,54.02
2023-03-28T10:41:59.654Z,54.37
2023-03-28T10:45:02.928Z,54.19
2023-03-28T10:48:16.694Z,54.10
2023-03-28T10:51:23.556Z,53.87
2023-03-28T10:54:33.112Z,53.84
2023-03-28T10:57:43.859Z,54.10
2023-03-28T11:01:08.720Z,54.09
2023-03-28T11:04:11.098Z,53.79
2023-03-28T11:07:15.643Z,53.80
2023-03-28T11:10:29.651Z,53.66
2023-03-28T11:13:31.301Z,53.67
2023-03-28T11:16:38.588Z,53.75
2023-03-28T11:19:40.215Z,53.64
2023-03-28T11:23:10.635Z,53.57
2023-03-28T11:26:17.108Z,53.33
2023-03-28T11:29:43.180Z,53.44
2023-03-28T11:32:52.404Z,53.26
2023-03-28T11:36:10.303Z,53.22
2023-03-28T11:39:24.253Z,53.22
2023-03-28T11:42:31.298Z,52.98
2023-03-28T11:45:51.074Z,53.08
2023-03-28T11:49:18.698Z,52.93
2023-03-28T11:52:28.345Z,52.69
2023-03-28T11:55:36.603Z,52.59
2023-03-28T11:58:42.191Z,52.77
2023-03-28T12:01:55.071Z,52.59
2023-03-28T12:05:24.961Z,52.60
2023-03-28T12:08:55.499Z,52.96
2023-03-28T12:12:06.232Z,52.74
2023-03-28T12:15:15.684Z,52.57
2023-03-28T12:18:28.814Z,52.74
2023-03-28T12:21:47.238Z,52.65
2023-03-28T12:24:52.586Z,52.70
2023-03-28T12:28:11.118Z,52.68
2023-03-28T12:31:21.216Z,52.64
2023-03-28T12:34:38.339Z,52.43
2023-03-28T12:37:47.003Z,52.46
2023-03-28T12:40:59.676Z,52.41
2023-03-28T12:44:05.644Z,52.36
2023-03-28T12:47:16.323Z,52.29
2023-03-28T12:50:17.806Z,52.25
2023-03-28T12:53:21.984Z,52.20
2023-03-28T12:56:23.607Z,52.25
2023-03-28T12:59:40.279Z,52.35
2023-03-28T13:02:52.075Z,52.41
2023-03-28T13:06:19.300Z,52.33
2023-03-28T13:09:49.581Z,52.09
2023-03-28T13:13:02.832Z,52.21
2023-03-28T13:16:13.050Z,52.03
2023-03-28T13:19:18.407Z,52.12
2023-03-28T13:22:32.834Z,52.07
2023-03-28T13:25:35.648Z,52.05
2023-03-28T13:28:41.257Z,52.37
2023-03-28T13:31:43.618Z,52.26
2023-03-28T13:34:50.546Z,52.39
2023-03-28T13:37:52.123Z,52.34
2023-03-28T13:41:06.521Z,52.12
2023-03-28T13:44:23.246Z,52.29
2023-03-28T13:47:45.257Z,52.25
2023-03-28T13:50:49.462Z,52.07
2023-03-28T13:53:51.035Z,51.87
2023-03-28T13:56:53.166Z,52.05
2023-03-28T13:59:58.747Z,51.93
2023-03-28T14:03:04.112Z,51.90
2023-03-28T14:06:14.435Z,51.90
2023-03-28T14:09:29.264Z,51.87
2023-03-28T14:12:31.019Z,51.83
2023-03-28T14:15:39.806Z,52.04
2023-03-28T14:18:48.125Z,51.91
2023-03-28T14:21:50.694Z,51.75
2023-03-28T14:24:56.377Z,51.82
2023-03-28T14:28:07.379Z,51.93
2023-03-28T14:31:30.664Z,51.96
2023-03-28T14:34:34.845Z,51.75
2023-03-28T14:37:37.439Z,51.71
2023-03-28T14:40:41.428Z,51.62
2023-03-28T14:43:43.146Z,51.61
2023-03-28T14:46:44.782Z,51.58
2023-03-28T14:49:47.166Z,51.63
2023-03-28T14:52:49.238Z,51.64
2023-03-28T14:55:54.507Z,51.38
2023-03-28T14:59:01.140Z,51.54
2023-03-28T15:02:05.704Z,51.53
2023-03-28T15:05:12.321Z,51.47
2023-03-28T15:08:34.556Z,51.24
2023-03-28T15:11:38.627Z,51.38
2023-03-28T15:14:42.802Z,51.34
2023-03-28T15:17:46.663Z,51.32
2023-03-28T15:20:52.164Z,51.15
2023-03-28T15:23:59.954Z,51.29
2023-03-28T15:27:04.197Z,51.12
2023-03-28T15:30:13.026Z,51.11
2023-03-28T15:33:21.222Z,50.98
2023-03-28T15:36:28.725Z,51.08
2023-03-28T15:39:35.257Z,51.09
2023-03-28T15:42:37.168Z,51.09
2023-03-28T15:45:42.164Z,51.02
2023-03-28T15:48:44.082Z,51.01
2023-03-28T15:51:51.528Z,50.99
2023-03-28T15:54:54.771Z,51.00
2023-03-28T15:57:56.942Z,50.95
2023-03-28T16:01:18.751Z,50.90
2023-03-28T16:04:24.043Z,50.89
2023-03-28T16:07:27.053Z,50.72
2023-03-28T16:10:30.042Z,50.86
2023-03-28T16:13:31.792Z,50.72
2023-03-28T16:16:33.435Z,50.94
2023-03-28T16:19:36.902Z,50.79
2023-03-28T16:22:38.401Z,50.83
2023-03-28T16:25:43.412Z,50.76
2023-03-28T16:28:44.931Z,50.58
2023-03-28T16:31:46.770Z,50.81
2023-03-28T16:34:48.605Z,50.78
2023-03-28T16:37:50.205Z,50.65
2023-03-28T16:40:51.998Z,50.86
2023-03-28T16:43:54.161Z,50.74
2023-03-28T16:46:55.765Z,50.61
2023-03-28T16:49:57.371Z,50.76
2023-03-28T16:52:58.979Z,50.63
2023-03-28T16:56:01.222Z,50.76
2023-03-28T16:59:04.508Z,50.69
2023-03-28T17:02:07.793Z,50.78
2023-03-28T17:05:09.646Z,50.87
2023-03-28T17:08:11.819Z,50.60
2023-03-28T17:11:13.766Z,50.74
2023-03-28T17:14:15.710Z,50.78
2023-03-28T17:17:18.728Z,50.62
2023-03-28T17:20:20.494Z,50.80
2023-03-28T17:23:22.055Z,50.81
2023-03-28T17:26:23.641Z,50.78
2023-03-28T17:29:25.534Z,50.85
2023-03-28T17:32:27.401Z,50.59
2023-03-28T17:35:29.173Z,50.76
2023-03-28T17:38:30.900Z,50.78
2023-03-28T17:41:32.492Z,50.73
2023-03-28T17:44:34.035Z,50.76
2023-03-28T17:47:35.902Z,50.71
2023-03-28T17:50:37.534Z,50.64
2023-03-28T17:53:41.049Z,50.78
2023-03-28T17:56:42.631Z,50.64
2023-03-28T17:59:44.634Z,50.70
2023-03-28T18:02:46.592Z,50.70
2023-03-28T18:05:55.049Z,50.73
2023-03-28T18:08:56.780Z,50.83
2023-03-28T18:11:58.340Z,50.70
2023-03-28T18:15:01.294Z,51.04
2023-03-28T18:18:03.457Z,51.08
2023-03-28T18:21:07.632Z,50.77
2023-03-28T18:24:09.417Z,50.63
2023-03-28T18:27:10.992Z,50.70
2023-03-28T18:30:12.933Z,50.73
2023-03-28T18:33:14.579Z,50.54
2023-03-28T18:36:16.117Z,50.49
2023-03-28T18:39:17.851Z,50.54
2023-03-28T18:42:19.550Z,50.47
2023-03-28T18:45:21.233Z,50.64
2023-03-28T18:48:22.827Z,50.36
2023-03-28T18:51:25.212Z,50.44
2023-03-28T18:54:26.760Z,50.39
2023-03-28T18:57:28.637Z,50.36
2023-03-28T19:00:30.411Z,50.29
2023-03-28T19:03:38.497Z,50.24
2023-03-28T19:06:40.142Z,50.33
2023-03-28T19:09:42.156Z,50.41
2023-03-28T19:12:43.823Z,50.35
2023-03-28T19:15:45.369Z,50.28
2023-03-28T19:18:47.410Z,50.43
2023-03-28T19:21:48.969Z,50.37
2023-03-28T19:24:50.690Z,50.37
2023-03-28T19:27:52.296Z,50.45
2023-03-28T19:31:02.530Z,50.40
2023-03-28T19:34:04.153Z,50.34
2023-03-28T19:37:05.879Z,50.42
2023-03-28T19:40:16.111Z,50.26
2023-03-28T19:43:21.088Z,50.27
2023-03-28T19:46:33.273Z,50.39
2023-03-28T19:49:35.594Z,50.21
2023-03-28T19:52:42.614Z,50.26
2023-03-28T19:55:51.229Z,50.30
2023-03-28T19:58:53.245Z,50.26
2023-03-28T20:01:54.826Z,49.99
2023-03-28T20:04:57.052Z,50.26
2023-03-28T20:07:58.827Z,50.30
2023-03-28T20:11:02.096Z,50.31
2023-03-28T20:14:03.845Z,50.33
2023-03-28T20:17:05.488Z,50.27
2023-03-28T20:20:08.261Z,50.30
2023-03-28T20:23:11.688Z,50.13
2023-03-28T20:26:16.470Z,50.20
2023-03-28T20:29:18.620Z,50.12
2023-03-28T20:32:20.147Z,50.01
2023-03-28T20:35:21.729Z,50.19
2023-03-28T20:38:23.957Z,50.13
2023-03-28T20:41:26.885Z,50.11
2023-03-28T20:44:30.601Z,50.05
2023-03-28T20:47:32.336Z,50.08
2023-03-28T20:50:34.244Z,50.05
2023-03-28T20:53:35.803Z,50.69
2023-03-28T20:56:37.671Z,51.20
2023-03-28T20:59:40.718Z,50.95
2023-03-28T21:02:42.585Z,50.58
2023-03-28T21:05:46.166Z,50.50
2023-03-28T21:08:50.025Z,50.51
2023-03-28T21:11:51.690Z,50.52
2023-03-28T21:14:55.580Z,50.42
2023-03-28T21:17:57.707Z,50.40
2023-03-28T21:20:59.504Z,50.65
2023-03-28T21:24:02.330Z,50.69
2023-03-28T21:27:03.834Z,50.70
2023-03-28T21:30:08.180Z,50.73
2023-03-28T21:33:16.013Z,50.71
2023-03-28T21:36:19.552Z,50.61
2023-03-28T21:39:21.632Z,50.66
2023-03-28T21:42:23.226Z,50.44
2023-03-28T21:45:24.790Z,50.49
2023-03-28T21:48:26.350Z,50.44
2023-03-28T21:51:27.952Z,50.36
2023-03-28T21:54:29.666Z,50.55
2023-03-28T21:57:31.414Z,50.34
2023-03-28T22:00:32.981Z,50.30
2023-03-28T22:03:37.585Z,50.32
2023-03-28T22:06:39.158Z,50.34
2023-03-28T22:09:41.209Z,50.41
2023-03-28T22:12:46.640Z,50.42
2023-03-28T22:15:49.629Z,50.37
2023-03-28T22:18:51.463Z,50.37
2023-03-28T22:21:53.043Z,50.25
2023-03-28T22:24:54.828Z,50.21
2023-03-28T22:27:56.884Z,50.37
2023-03-28T22:30:58.666Z,50.49
2023-03-28T22:34:00.326Z,50.37
2023-03-28T22:37:01.886Z,50.50
2023-03-28T22:40:06.661Z,50.49
2023-03-28T22:43:09.106Z,50.58
2023-03-28T22:46:12.867Z,50.62
2023-03-28T22:49:22.501Z,50.69
2023-03-28T22:52:31.614Z,50.76
2023-03-28T22:55:33.252Z,50.81
2023-03-28T22:58:34.869Z,50.94
2023-03-28T23:01:37.391Z,51.02
2023-03-28T23:04:40.221Z,51.00
2023-03-28T23:07:41.863Z,51.09
2023-03-28T23:10:43.816Z,50.97
2023-03-28T23:13:45.752Z,51.12
2023-03-28T23:16:47.362Z,51.13
2023-03-28T23:19:50.208Z,51.15
2023-03-28T23:22:51.928Z,51.31
2023-03-28T23:25:53.506Z,51.22
2023-03-28T23:28:55.131Z,51.10
2023-03-28T23:31:56.860Z,51.34
2023-03-28T23:34:58.657Z,51.21
2023-03-28T23:38:00.182Z,51.18
2023-03-28T23:41:02.082Z,51.36
2023-03-28T23:44:04.435Z,51.14
2023-03-28T23:47:06.175Z,51.11
2023-03-28T23:50:09.376Z,51.11
2023-03-28T23:53:11.004Z,51.37
2023-03-28T23:56:12.579Z,51.40
2023-03-28T23:59:14.107Z,51.37
